sensor_id;sensor_type;location;lat;lon;timestamp;pressure;altitude;pressure_sealevel;temperature;humidity
3796;BME280;1913;50.660;7.834;2022-10-16T00:00:41;96849.28;;;13.48;100.00
3796;BME280;1913;50.660;7.834;2022-10-16T00:03:07;96855.94;;;13.51;100.00
3796;BME280;1913;50.660;7.834;2022-10-16T00:05:38;96865.59;;;13.57;100.00
3796;BME280;1913;50.660;7.834;2022-10-16T00:08:04;96856.63;;;13.58;100.00
3796;BME280;1913;50.660;7.834;2022-10-16T00:10:29;96865.16;;;13.60;100.00
3796;BME280;1913;50.660;7.834;2022-10-16T00:12:54;96866.16;;;13.59;100.00
3796;BME280;1913;50.660;7.834;2022-10-16T00:15:20;96858.81;;;13.61;100.00
3796;BME280;1913;50.660;7.834;2022-10-16T00:17:45;96847.13;;;13.57;100.00
3796;BME280;1913;50.660;7.834;2022-10-16T00:20:10;96852.41;;;13.57;100.00
3796;BME280;1913;50.660;7.834;2022-10-16T00:22:36;96850.56;;;13.57;100.00
3796;BME280;1913;50.660;7.834;2022-10-16T00:25:02;96869.03;;;13.57;100.00
3796;BME280;1913;50.660;7.834;2022-10-16T00:27:27;96859.41;;;13.63;100.00
3796;BME280;1913;50.660;7.834;2022-10-16T00:29:53;96850.81;;;13.56;100.00
3796;BME280;1913;50.660;7.834;2022-10-16T00:32:19;96867.53;;;13.61;100.00
3796;BME280;1913;50.660;7.834;2022-10-16T00:34:45;96862.81;;;13.52;100.00
3796;BME280;1913;50.660;7.834;2022-10-16T00:37:11;96858.94;;;13.54;100.00
3796;BME280;1913;50.660;7.834;2022-10-16T00:39:37;96866.06;;;13.54;100.00
3796;BME280;1913;50.660;7.834;2022-10-16T00:42:02;96869.28;;;13.56;100.00
3796;BME280;1913;50.660;7.834;2022-10-16T00:47:24;96862.38;;;13.55;100.00
3796;BME280;1913;50.660;7.834;2022-10-16T00:49:55;96853.91;;;13.53;100.00
3796;BME280;1913;50.660;7.834;2022-10-16T00:52:22;96872.81;;;13.61;100.00
3796;BME280;1913;50.660;7.834;2022-10-16T00:54:49;96869.16;;;13.51;100.00
3796;BME280;1913;50.660;7.834;2022-10-16T00:57:15;96883.38;;;13.50;100.00
3796;BME280;1913;50.660;7.834;2022-10-16T00:59:41;96890.50;;;13.49;100.00
3796;BME280;1913;50.660;7.834;2022-10-16T01:02:13;96901.88;;;13.50;100.00
3796;BME280;1913;50.660;7.834;2022-10-16T01:04:42;96908.63;;;13.46;100.00
3796;BME280;1913;50.660;7.834;2022-10-16T01:07:24;96905.41;;;13.55;100.00
3796;BME280;1913;50.660;7.834;2022-10-16T01:10:06;96903.00;;;13.54;100.00
3796;BME280;1913;50.660;7.834;2022-10-16T01:15:16;96906.56;;;13.48;100.00
3796;BME280;1913;50.660;7.834;2022-10-16T01:17:44;96887.28;;;13.47;100.00
3796;BME280;1913;50.660;7.834;2022-10-16T01:22:48;96892.91;;;13.51;100.00
3796;BME280;1913;50.660;7.834;2022-10-16T01:25:30;96879.25;;;13.42;100.00
3796;BME280;1913;50.660;7.834;2022-10-16T01:28:02;96884.06;;;13.45;100.00
3796;BME280;1913;50.660;7.834;2022-10-16T01:30:32;96895.88;;;13.43;100.00
3796;BME280;1913;50.660;7.834;2022-10-16T01:33:11;96893.25;;;13.43;100.00
3796;BME280;1913;50.660;7.834;2022-10-16T01:35:54;96900.47;;;13.35;100.00
3796;BME280;1913;50.660;7.834;2022-10-16T01:38:48;96902.41;;;13.40;100.00
3796;BME280;1913;50.660;7.834;2022-10-16T01:41:19;96895.28;;;13.40;100.00
3796;BME280;1913;50.660;7.834;2022-10-16T01:43:53;96897.03;;;13.47;100.00
3796;BME280;1913;50.660;7.834;2022-10-16T01:46:22;96886.81;;;13.38;100.00
3796;BME280;1913;50.660;7.834;2022-10-16T01:48:50;96888.97;;;13.30;100.00
3796;BME280;1913;50.660;7.834;2022-10-16T01:51:17;96887.13;;;13.30;100.00
3796;BME280;1913;50.660;7.834;2022-10-16T01:53:48;96878.41;;;13.30;100.00
3796;BME280;1913;50.660;7.834;2022-10-16T01:56:17;96880.13;;;13.24;100.00
3796;BME280;1913;50.660;7.834;2022-10-16T01:58:50;96865.53;;;13.22;100.00
3796;BME280;1913;50.660;7.834;2022-10-16T02:01:19;96876.31;;;13.20;100.00
3796;BME280;1913;50.660;7.834;2022-10-16T02:03:46;96902.13;;;13.18;100.00
3796;BME280;1913;50.660;7.834;2022-10-16T02:06:15;96912.75;;;13.11;100.00
3796;BME280;1913;50.660;7.834;2022-10-16T02:08:41;96913.78;;;13.10;100.00
3796;BME280;1913;50.660;7.834;2022-10-16T02:11:09;96913.69;;;13.17;100.00
3796;BME280;1913;50.660;7.834;2022-10-16T02:16:03;96904.50;;;13.19;100.00
3796;BME280;1913;50.660;7.834;2022-10-16T02:18:29;96900.38;;;13.12;100.00
3796;BME280;1913;50.660;7.834;2022-10-16T02:21:19;96903.59;;;13.14;100.00
3796;BME280;1913;50.660;7.834;2022-10-16T02:26:15;96911.69;;;13.01;100.00
3796;BME280;1913;50.660;7.834;2022-10-16T02:28:48;96914.13;;;13.02;100.00
3796;BME280;1913;50.660;7.834;2022-10-16T02:31:24;96920.84;;;12.98;100.00
3796;BME280;1913;50.660;7.834;2022-10-16T02:33:53;96923.28;;;13.00;100.00
3796;BME280;1913;50.660;7.834;2022-10-16T02:36:20;96911.56;;;12.96;100.00
3796;BME280;1913;50.660;7.834;2022-10-16T02:38:46;96908.56;;;12.92;100.00
3796;BME280;1913;50.660;7.834;2022-10-16T02:41:12;96901.72;;;13.03;100.00
3796;BME280;1913;50.660;7.834;2022-10-16T02:43:38;96910.09;;;13.00;100.00
3796;BME280;1913;50.660;7.834;2022-10-16T02:46:04;96910.66;;;13.02;100.00
3796;BME280;1913;50.660;7.834;2022-10-16T02:48:29;96916.97;;;13.01;100.00
3796;BME280;1913;50.660;7.834;2022-10-16T02:50:54;96922.03;;;13.02;100.00
3796;BME280;1913;50.660;7.834;2022-10-16T02:53:20;96925.69;;;13.01;100.00
3796;BME280;1913;50.660;7.834;2022-10-16T02:55:45;96924.44;;;13.04;100.00
3796;BME280;1913;50.660;7.834;2022-10-16T02:58:11;96925.47;;;13.03;100.00
3796;BME280;1913;50.660;7.834;2022-10-16T03:00:36;96928.81;;;13.10;100.00
3796;BME280;1913;50.660;7.834;2022-10-16T03:03:01;96919.41;;;13.02;100.00
3796;BME280;1913;50.660;7.834;2022-10-16T03:05:27;96922.59;;;13.04;100.00
3796;BME280;1913;50.660;7.834;2022-10-16T03:07:52;96930.41;;;13.11;100.00
3796;BME280;1913;50.660;7.834;2022-10-16T03:10:18;96928.22;;;13.08;100.00
3796;BME280;1913;50.660;7.834;2022-10-16T03:12:43;96931.66;;;13.08;100.00
3796;BME280;1913;50.660;7.834;2022-10-16T03:15:09;96926.03;;;13.05;100.00
3796;BME280;1913;50.660;7.834;2022-10-16T03:17:35;96944.06;;;13.08;100.00
3796;BME280;1913;50.660;7.834;2022-10-16T03:20:00;96943.84;;;13.09;100.00
3796;BME280;1913;50.660;7.834;2022-10-16T03:22:25;96951.09;;;13.14;100.00
3796;BME280;1913;50.660;7.834;2022-10-16T03:24:51;96950.63;;;13.17;100.00
3796;BME280;1913;50.660;7.834;2022-10-16T03:27:16;96951.53;;;13.11;100.00
3796;BME280;1913;50.660;7.834;2022-10-16T03:29:42;96942.81;;;13.10;100.00
3796;BME280;1913;50.660;7.834;2022-10-16T03:32:07;96926.84;;;13.05;100.00
3796;BME280;1913;50.660;7.834;2022-10-16T03:34:33;96945.31;;;13.05;100.00
3796;BME280;1913;50.660;7.834;2022-10-16T03:36:58;96939.09;;;13.00;100.00
3796;BME280;1913;50.660;7.834;2022-10-16T03:39:23;96924.44;;;13.04;100.00
3796;BME280;1913;50.660;7.834;2022-10-16T03:41:49;96927.66;;;13.06;100.00
3796;BME280;1913;50.660;7.834;2022-10-16T03:44:14;96936.91;;;12.97;100.00
3796;BME280;1913;50.660;7.834;2022-10-16T03:46:40;96925.22;;;13.04;100.00
3796;BME280;1913;50.660;7.834;2022-10-16T03:49:05;96925.69;;;13.01;100.00
3796;BME280;1913;50.660;7.834;2022-10-16T03:51:30;96946.28;;;12.92;100.00
3796;BME280;1913;50.660;7.834;2022-10-16T03:53:56;96956.50;;;12.89;100.00
3796;BME280;1913;50.660;7.834;2022-10-16T03:56:21;96956.94;;;12.86;100.00
3796;BME280;1913;50.660;7.834;2022-10-16T03:58:47;96940.66;;;12.89;100.00
3796;BME280;1913;50.660;7.834;2022-10-16T04:01:12;96939.41;;;12.91;100.00
3796;BME280;1913;50.660;7.834;2022-10-16T04:03:38;96942.06;;;12.91;100.00
3796;BME280;1913;50.660;7.834;2022-10-16T04:06:03;96946.97;;;12.88;100.00
3796;BME280;1913;50.660;7.834;2022-10-16T04:08:28;96954.28;;;12.86;100.00
3796;BME280;1913;50.660;7.834;2022-10-16T04:10:54;96946.75;;;12.89;100.00
3796;BME280;1913;50.660;7.834;2022-10-16T04:13:20;96949.81;;;12.86;100.00
3796;BME280;1913;50.660;7.834;2022-10-16T04:15:45;96962.78;;;12.88;100.00
3796;BME280;1913;50.660;7.834;2022-10-16T04:18:11;96969.16;;;12.80;100.00
3796;BME280;1913;50.660;7.834;2022-10-16T04:20:36;96965.28;;;12.83;100.00
3796;BME280;1913;50.660;7.834;2022-10-16T04:23:02;96964.03;;;12.85;100.00
3796;BME280;1913;50.660;7.834;2022-10-16T04:25:27;96967.91;;;12.83;100.00
3796;BME280;1913;50.660;7.834;2022-10-16T04:27:54;96963.69;;;12.82;100.00
3796;BME280;1913;50.660;7.834;2022-10-16T04:30:20;96960.59;;;12.85;100.00
3796;BME280;1913;50.660;7.834;2022-10-16T04:32:50;96964.47;;;12.82;100.00
3796;BME280;1913;50.660;7.834;2022-10-16T04:35:20;96964.41;;;12.89;100.00
3796;BME280;1913;50.660;7.834;2022-10-16T04:37:46;96959.13;;;12.89;100.00
3796;BME280;1913;50.660;7.834;2022-10-16T04:40:12;96954.66;;;12.89;100.00
3796;BME280;1913;50.660;7.834;2022-10-16T04:42:38;96957.72;;;12.86;100.00
3796;BME280;1913;50.660;7.834;2022-10-16T04:45:05;96966.00;;;12.90;100.00
3796;BME280;1913;50.660;7.834;2022-10-16T04:47:31;96969.00;;;12.93;100.00
3796;BME280;1913;50.660;7.834;2022-10-16T04:49:56;96993.41;;;12.89;100.00
3796;BME280;1913;50.660;7.834;2022-10-16T04:52:22;96981.81;;;12.90;100.00
3796;BME280;1913;50.660;7.834;2022-10-16T04:54:49;96977.44;;;12.84;100.00
3796;BME280;1913;50.660;7.834;2022-10-16T04:57:15;96978.50;;;12.94;100.00
3796;BME280;1913;50.660;7.834;2022-10-16T04:59:41;96973.78;;;12.85;100.00
3796;BME280;1913;50.660;7.834;2022-10-16T05:02:06;96979.41;;;12.88;100.00
3796;BME280;1913;50.660;7.834;2022-10-16T05:04:31;96989.44;;;12.80;100.00
3796;BME280;1913;50.660;7.834;2022-10-16T05:06:57;96978.63;;;12.88;100.00
3796;BME280;1913;50.660;7.834;2022-10-16T05:09:22;96991.28;;;12.79;100.00
3796;BME280;1913;50.660;7.834;2022-10-16T05:11:48;96980.72;;;12.79;100.00
3796;BME280;1913;50.660;7.834;2022-10-16T05:14:13;96976.13;;;12.75;100.00
3796;BME280;1913;50.660;7.834;2022-10-16T05:16:39;96995.25;;;12.70;100.00
3796;BME280;1913;50.660;7.834;2022-10-16T05:19:04;96990.56;;;12.72;100.00
3796;BME280;1913;50.660;7.834;2022-10-16T05:21:30;96989.75;;;12.72;100.00
3796;BME280;1913;50.660;7.834;2022-10-16T05:23:55;97005.44;;;12.66;100.00
3796;BME280;1913;50.660;7.834;2022-10-16T05:26:21;97010.25;;;12.69;100.00
3796;BME280;1913;50.660;7.834;2022-10-16T05:28:46;97016.13;;;12.72;100.00
3796;BME280;1913;50.660;7.834;2022-10-16T05:31:12;97015.00;;;12.79;100.00
3796;BME280;1913;50.660;7.834;2022-10-16T05:33:37;97016.63;;;12.80;100.00
3796;BME280;1913;50.660;7.834;2022-10-16T05:36:08;97017.09;;;12.77;100.00
3796;BME280;1913;50.660;7.834;2022-10-16T05:38:37;97027.75;;;12.82;100.00
3796;BME280;1913;50.660;7.834;2022-10-16T05:41:04;97019.25;;;12.80;100.00
3796;BME280;1913;50.660;7.834;2022-10-16T05:43:30;97007.63;;;12.88;100.00
3796;BME280;1913;50.660;7.834;2022-10-16T05:46:04;97006.53;;;12.77;100.00
3796;BME280;1913;50.660;7.834;2022-10-16T05:48:31;97010.91;;;12.83;100.00
3796;BME280;1913;50.660;7.834;2022-10-16T05:53:23;96997.88;;;12.88;100.00
3796;BME280;1913;50.660;7.834;2022-10-16T05:55:57;97013.34;;;12.85;100.00
3796;BME280;1913;50.660;7.834;2022-10-16T05:58:23;97020.34;;;12.91;100.00
3796;BME280;1913;50.660;7.834;2022-10-16T06:00:57;97024.09;;;12.83;100.00
3796;BME280;1913;50.660;7.834;2022-10-16T06:03:23;97035.16;;;12.74;100.00
3796;BME280;1913;50.660;7.834;2022-10-16T06:05:49;97030.75;;;12.86;100.00
3796;BME280;1913;50.660;7.834;2022-10-16T06:08:14;97026.72;;;12.83;100.00
3796;BME280;1913;50.660;7.834;2022-10-16T06:10:40;97028.56;;;12.83;100.00
3796;BME280;1913;50.660;7.834;2022-10-16T06:13:05;97031.00;;;12.84;100.00
3796;BME280;1913;50.660;7.834;2022-10-16T06:15:31;97039.13;;;12.83;100.00
3796;BME280;1913;50.660;7.834;2022-10-16T06:17:56;97033.41;;;12.86;100.00
3796;BME280;1913;50.660;7.834;2022-10-16T06:20:21;97031.94;;;12.90;100.00
3796;BME280;1913;50.660;7.834;2022-10-16T06:22:47;97042.72;;;12.88;100.00
3796;BME280;1913;50.660;7.834;2022-10-16T06:25:12;97042.72;;;12.88;100.00
3796;BME280;1913;50.660;7.834;2022-10-16T06:27:39;97038.91;;;12.84;100.00
3796;BME280;1913;50.660;7.834;2022-10-16T06:30:06;97039.72;;;12.85;100.00
3796;BME280;1913;50.660;7.834;2022-10-16T06:32:32;97043.94;;;12.86;100.00
3796;BME280;1913;50.660;7.834;2022-10-16T06:34:57;97036.84;;;12.86;100.00
3796;BME280;1913;50.660;7.834;2022-10-16T06:37:22;97041.06;;;12.87;100.00
3796;BME280;1913;50.660;7.834;2022-10-16T06:39:48;97048.34;;;12.92;100.00
3796;BME280;1913;50.660;7.834;2022-10-16T06:42:13;97054.88;;;12.89;100.00
3796;BME280;1913;50.660;7.834;2022-10-16T06:44:39;97059.63;;;12.99;100.00
3796;BME280;1913;50.660;7.834;2022-10-16T06:47:04;97058.59;;;13.00;100.00
3796;BME280;1913;50.660;7.834;2022-10-16T06:49:30;97055.59;;;12.97;100.00
3796;BME280;1913;50.660;7.834;2022-10-16T06:51:55;97058.97;;;13.04;100.00
3796;BME280;1913;50.660;7.834;2022-10-16T06:54:20;97070.47;;;13.09;100.00
3796;BME280;1913;50.660;7.834;2022-10-16T06:56:46;97078.28;;;13.16;100.00
3796;BME280;1913;50.660;7.834;2022-10-16T06:59:11;97077.72;;;13.14;100.00
3796;BME280;1913;50.660;7.834;2022-10-16T07:01:37;97075.66;;;13.16;100.00
3796;BME280;1913;50.660;7.834;2022-10-16T07:04:02;97075.81;;;13.03;100.00
3796;BME280;1913;50.660;7.834;2022-10-16T07:06:31;97087.41;;;13.20;100.00
3796;BME280;1913;50.660;7.834;2022-10-16T07:08:56;97095.22;;;13.08;100.00
3796;BME280;1913;50.660;7.834;2022-10-16T07:11:23;97097.06;;;13.08;100.00
3796;BME280;1913;50.660;7.834;2022-10-16T07:13:49;97112.00;;;13.14;100.00
3796;BME280;1913;50.660;7.834;2022-10-16T07:16:17;97115.22;;;13.16;100.00
3796;BME280;1913;50.660;7.834;2022-10-16T07:18:44;97125.53;;;13.24;100.00
3796;BME280;1913;50.660;7.834;2022-10-16T07:21:12;97129.16;;;13.23;100.00
3796;BME280;1913;50.660;7.834;2022-10-16T07:23:38;97128.34;;;13.23;100.00
3796;BME280;1913;50.660;7.834;2022-10-16T07:26:05;97130.63;;;13.37;100.00
3796;BME280;1913;50.660;7.834;2022-10-16T07:28:31;97135.91;;;13.37;100.00
3796;BME280;1913;50.660;7.834;2022-10-16T07:31:02;97130.06;;;13.35;100.00
3796;BME280;1913;50.660;7.834;2022-10-16T07:33:28;97125.88;;;13.46;100.00
3796;BME280;1913;50.660;7.834;2022-10-16T07:35:54;97140.47;;;13.49;100.00
3796;BME280;1913;50.660;7.834;2022-10-16T07:38:21;97145.97;;;13.47;100.00
3796;BME280;1913;50.660;7.834;2022-10-16T07:40:46;97144.72;;;13.50;100.00
3796;BME280;1913;50.660;7.834;2022-10-16T07:43:12;97162.81;;;13.64;100.00
3796;BME280;1913;50.660;7.834;2022-10-16T07:45:46;97171.69;;;13.52;100.00
3796;BME280;1913;50.660;7.834;2022-10-16T07:48:12;97175.88;;;13.59;100.00
3796;BME280;1913;50.660;7.834;2022-10-16T07:50:38;97181.97;;;13.60;100.00
3796;BME280;1913;50.660;7.834;2022-10-16T07:53:03;97173.44;;;13.76;100.00
3796;BME280;1913;50.660;7.834;2022-10-16T07:55:29;97184.88;;;13.88;100.00
3796;BME280;1913;50.660;7.834;2022-10-16T07:57:54;97191.47;;;13.79;100.00
3796;BME280;1913;50.660;7.834;2022-10-16T08:00:20;97194.84;;;13.86;100.00
3796;BME280;1913;50.660;7.834;2022-10-16T08:02:45;97197.19;;;13.95;100.00
3796;BME280;1913;50.660;7.834;2022-10-16T08:05:10;97204.75;;;13.91;100.00
3796;BME280;1913;50.660;7.834;2022-10-16T08:07:36;97207.97;;;13.93;100.00
3796;BME280;1913;50.660;7.834;2022-10-16T08:10:01;97212.88;;;13.89;100.00
3796;BME280;1913;50.660;7.834;2022-10-16T08:12:27;97209.94;;;13.98;100.00
3796;BME280;1913;50.660;7.834;2022-10-16T08:14:52;97213.31;;;13.86;100.00
3796;BME280;1913;50.660;7.834;2022-10-16T08:17:17;97208.34;;;13.78;100.00
3796;BME280;1913;50.660;7.834;2022-10-16T08:19:46;97207.16;;;13.93;100.00
3796;BME280;1913;50.660;7.834;2022-10-16T08:22:13;97215.81;;;14.00;100.00
3796;BME280;1913;50.660;7.834;2022-10-16T08:24:39;97214.78;;;14.31;100.00
3796;BME280;1913;50.660;7.834;2022-10-16T08:27:05;97215.50;;;14.38;100.00
3796;BME280;1913;50.660;7.834;2022-10-16T08:29:30;97216.97;;;14.76;100.00
3796;BME280;1913;50.660;7.834;2022-10-16T08:31:56;97227.94;;;15.03;100.00
3796;BME280;1913;50.660;7.834;2022-10-16T08:34:21;97224.13;;;15.11;100.00
3796;BME280;1913;50.660;7.834;2022-10-16T08:36:47;97232.88;;;14.88;100.00
3796;BME280;1913;50.660;7.834;2022-10-16T08:39:12;97228.69;;;14.68;100.00
3796;BME280;1913;50.660;7.834;2022-10-16T08:42:09;97234.69;;;14.75;100.00
3796;BME280;1913;50.660;7.834;2022-10-16T08:47:45;97235.75;;;15.33;100.00
3796;BME280;1913;50.660;7.834;2022-10-16T08:50:14;97238.13;;;15.82;100.00
3796;BME280;1913;50.660;7.834;2022-10-16T08:52:44;97244.47;;;16.66;100.00
3796;BME280;1913;50.660;7.834;2022-10-16T08:57:55;97255.06;;;17.12;100.00
3796;BME280;1913;50.660;7.834;2022-10-16T09:00:21;97262.63;;;17.98;100.00
3796;BME280;1913;50.660;7.834;2022-10-16T09:05:27;97277.41;;;17.88;100.00
3796;BME280;1913;50.660;7.834;2022-10-16T09:08:30;97271.06;;;17.89;100.00
3796;BME280;1913;50.660;7.834;2022-10-16T09:13:54;97277.31;;;17.61;100.00
3796;BME280;1913;50.660;7.834;2022-10-16T09:16:34;97283.28;;;17.52;100.00
3796;BME280;1913;50.660;7.834;2022-10-16T09:21:36;97296.25;;;17.31;100.00
3796;BME280;1913;50.660;7.834;2022-10-16T09:24:12;97298.13;;;16.97;100.00
3796;BME280;1913;50.660;7.834;2022-10-16T09:26:38;97294.44;;;16.58;100.00
3796;BME280;1913;50.660;7.834;2022-10-16T09:29:04;97294.94;;;16.55;100.00
3796;BME280;1913;50.660;7.834;2022-10-16T09:31:29;97300.13;;;16.21;100.00
3796;BME280;1913;50.660;7.834;2022-10-16T09:33:58;97304.84;;;16.31;100.00
3796;BME280;1913;50.660;7.834;2022-10-16T09:36:27;97301.25;;;16.37;100.00
3796;BME280;1913;50.660;7.834;2022-10-16T09:39:05;97301.53;;;16.23;100.00
3796;BME280;1913;50.660;7.834;2022-10-16T09:41:34;97305.56;;;16.26;100.00
3796;BME280;1913;50.660;7.834;2022-10-16T09:44:01;97304.13;;;15.95;100.00
3796;BME280;1913;50.660;7.834;2022-10-16T09:46:35;97309.91;;;15.92;100.00
3796;BME280;1913;50.660;7.834;2022-10-16T09:49:21;97311.75;;;15.79;100.00
3796;BME280;1913;50.660;7.834;2022-10-16T09:51:47;97313.59;;;15.79;100.00
3796;BME280;1913;50.660;7.834;2022-10-16T09:54:15;97305.66;;;15.67;100.00
3796;BME280;1913;50.660;7.834;2022-10-16T09:56:42;97292.34;;;16.02;100.00
3796;BME280;1913;50.660;7.834;2022-10-16T10:01:39;97305.84;;;16.70;100.00
3796;BME280;1913;50.660;7.834;2022-10-16T10:04:05;97304.53;;;17.18;100.00
3796;BME280;1913;50.660;7.834;2022-10-16T10:06:34;97305.25;;;17.13;100.00
3796;BME280;1913;50.660;7.834;2022-10-16T10:14:46;97289.00;;;17.10;100.00
3796;BME280;1913;50.660;7.834;2022-10-16T10:19:50;97299.38;;;18.01;100.00
3796;BME280;1913;50.660;7.834;2022-10-16T10:45:12;97303.38;;;20.33;100.00
3796;BME280;1913;50.660;7.834;2022-10-16T10:47:56;97305.38;;;20.74;100.00
3796;BME280;1913;50.660;7.834;2022-10-16T10:53:18;97300.06;;;20.79;100.00
3796;BME280;1913;50.660;7.834;2022-10-16T11:01:14;97296.06;;;23.27;85.40
3796;BME280;1913;50.660;7.834;2022-10-16T11:08:58;97306.41;;;22.60;79.78
3796;BME280;1913;50.660;7.834;2022-10-16T11:11:35;97306.78;;;21.27;84.66
3796;BME280;1913;50.660;7.834;2022-10-16T11:16:43;97301.50;;;22.23;92.70
3796;BME280;1913;50.660;7.834;2022-10-16T11:22:01;97291.56;;;23.17;86.05
3796;BME280;1913;50.660;7.834;2022-10-16T11:24:35;97288.09;;;23.75;69.64
3796;BME280;1913;50.660;7.834;2022-10-16T11:27:07;97290.13;;;24.12;64.09
3796;BME280;1913;50.660;7.834;2022-10-16T11:29:35;97300.03;;;24.93;61.42
3796;BME280;1913;50.660;7.834;2022-10-16T11:32:19;97303.75;;;25.48;59.32
3796;BME280;1913;50.660;7.834;2022-10-16T11:34:52;97300.28;;;25.15;60.69
3796;BME280;1913;50.660;7.834;2022-10-16T11:37:24;97294.19;;;24.29;59.52
3796;BME280;1913;50.660;7.834;2022-10-16T11:39:54;97305.31;;;23.40;62.78
3796;BME280;1913;50.660;7.834;2022-10-16T11:42:35;97304.34;;;22.47;75.09
3796;BME280;1913;50.660;7.834;2022-10-16T11:48:22;97299.38;;;22.75;76.04
3796;BME280;1913;50.660;7.834;2022-10-16T11:50:56;97291.19;;;23.29;72.57
3796;BME280;1913;50.660;7.834;2022-10-16T11:56:06;97292.59;;;24.71;66.10
3796;BME280;1913;50.660;7.834;2022-10-16T12:01:22;97310.91;;;25.99;56.01
3796;BME280;1913;50.660;7.834;2022-10-16T12:06:34;97313.63;;;24.45;63.04
3796;BME280;1913;50.660;7.834;2022-10-16T12:09:02;97312.56;;;25.35;56.36
3796;BME280;1913;50.660;7.834;2022-10-16T12:16:30;97315.63;;;25.28;59.40
3796;BME280;1913;50.660;7.834;2022-10-16T12:19:13;97316.66;;;24.14;60.34
3796;BME280;1913;50.660;7.834;2022-10-16T12:21:40;97315.03;;;23.02;72.40
3796;BME280;1913;50.660;7.834;2022-10-16T12:24:06;97321.16;;;22.63;89.36
3796;BME280;1913;50.660;7.834;2022-10-16T12:26:33;97329.66;;;21.95;90.22
3796;BME280;1913;50.660;7.834;2022-10-16T12:29:17;97324.97;;;21.56;96.62
3796;BME280;1913;50.660;7.834;2022-10-16T12:31:48;97322.00;;;20.96;97.58
3796;BME280;1913;50.660;7.834;2022-10-16T12:34:41;97315.84;;;20.96;97.31
3796;BME280;1913;50.660;7.834;2022-10-16T12:37:36;97303.53;;;20.74;97.94
3796;BME280;1913;50.660;7.834;2022-10-16T12:40:34;97308.63;;;21.01;95.62
3796;BME280;1913;50.660;7.834;2022-10-16T12:43:12;97311.81;;;20.98;95.50
3796;BME280;1913;50.660;7.834;2022-10-16T12:45:38;97309.84;;;20.48;100.00
3796;BME280;1913;50.660;7.834;2022-10-16T12:48:18;97315.97;;;20.48;100.00
3796;BME280;1913;50.660;7.834;2022-10-16T12:50:44;97314.34;;;20.32;100.00
3796;BME280;1913;50.660;7.834;2022-10-16T12:53:22;97327.69;;;20.32;100.00
3796;BME280;1913;50.660;7.834;2022-10-16T12:59:07;97323.84;;;21.16;100.00
3796;BME280;1913;50.660;7.834;2022-10-16T13:01:58;97326.97;;;20.52;97.37
3796;BME280;1913;50.660;7.834;2022-10-16T13:07:32;97329.22;;;21.11;100.00
3796;BME280;1913;50.660;7.834;2022-10-16T13:17:58;97326.25;;;23.04;84.08
3796;BME280;1913;50.660;7.834;2022-10-16T13:20:35;97324.34;;;23.09;82.27
3796;BME280;1913;50.660;7.834;2022-10-16T13:23:24;97329.53;;;23.30;78.87
3796;BME280;1913;50.660;7.834;2022-10-16T13:28:20;97327.59;;;22.52;87.89
3796;BME280;1913;50.660;7.834;2022-10-16T13:30:54;97336.13;;;22.59;92.28
3796;BME280;1913;50.660;7.834;2022-10-16T13:35:57;97335.75;;;22.31;95.36
3796;BME280;1913;50.660;7.834;2022-10-16T13:38:25;97334.28;;;21.79;97.55
3796;BME280;1913;50.660;7.834;2022-10-16T13:40:56;97338.22;;;20.69;100.00
3796;BME280;1913;50.660;7.834;2022-10-16T13:43:28;97338.91;;;20.39;100.00
3796;BME280;1913;50.660;7.834;2022-10-16T13:45:59;97329.28;;;20.28;100.00
3796;BME280;1913;50.660;7.834;2022-10-16T13:48:25;97318.97;;;20.62;100.00
3796;BME280;1913;50.660;7.834;2022-10-16T13:51:11;97319.81;;;20.68;100.00
3796;BME280;1913;50.660;7.834;2022-10-16T13:53:37;97323.25;;;20.58;100.00
3796;BME280;1913;50.660;7.834;2022-10-16T13:56:05;97331.16;;;20.38;100.00
3796;BME280;1913;50.660;7.834;2022-10-16T13:58:31;97329.63;;;19.94;100.00
3796;BME280;1913;50.660;7.834;2022-10-16T14:01:03;97318.56;;;19.70;100.00
3796;BME280;1913;50.660;7.834;2022-10-16T14:03:31;97330.38;;;19.47;100.00
3796;BME280;1913;50.660;7.834;2022-10-16T14:06:02;97326.97;;;19.20;100.00
3796;BME280;1913;50.660;7.834;2022-10-16T14:08:29;97331.88;;;19.01;100.00
3796;BME280;1913;50.660;7.834;2022-10-16T14:10:57;97322.81;;;18.75;100.00
3796;BME280;1913;50.660;7.834;2022-10-16T14:13:34;97323.97;;;18.35;100.00
3796;BME280;1913;50.660;7.834;2022-10-16T14:16:06;97331.91;;;18.57;100.00
3796;BME280;1913;50.660;7.834;2022-10-16T14:18:33;97329.97;;;18.47;100.00
3796;BME280;1913;50.660;7.834;2022-10-16T14:21:06;97337.09;;;18.19;100.00
3796;BME280;1913;50.660;7.834;2022-10-16T14:23:37;97336.22;;;18.14;100.00
3796;BME280;1913;50.660;7.834;2022-10-16T14:28:38;97326.63;;;17.91;100.00
3796;BME280;1913;50.660;7.834;2022-10-16T14:31:34;97339.09;;;18.07;100.00
3796;BME280;1913;50.660;7.834;2022-10-16T14:34:02;97334.84;;;17.89;100.00
3796;BME280;1913;50.660;7.834;2022-10-16T14:36:28;97339.19;;;17.95;100.00
3796;BME280;1913;50.660;7.834;2022-10-16T14:41:23;97327.53;;;17.80;100.00
3796;BME280;1913;50.660;7.834;2022-10-16T14:43:53;97325.13;;;17.78;100.00
3796;BME280;1913;50.660;7.834;2022-10-16T14:46:21;97323.91;;;17.69;100.00
3796;BME280;1913;50.660;7.834;2022-10-16T14:51:35;97329.88;;;17.42;100.00
3796;BME280;1913;50.660;7.834;2022-10-16T14:54:01;97328.44;;;17.52;100.00
3796;BME280;1913;50.660;7.834;2022-10-16T14:56:34;97330.69;;;17.43;100.00
3796;BME280;1913;50.660;7.834;2022-10-16T14:59:08;97332.00;;;17.40;100.00
3796;BME280;1913;50.660;7.834;2022-10-16T15:01:38;97338.16;;;17.46;100.00
3796;BME280;1913;50.660;7.834;2022-10-16T15:04:04;97338.59;;;17.38;100.00
3796;BME280;1913;50.660;7.834;2022-10-16T15:06:29;97341.56;;;17.24;100.00
3796;BME280;1913;50.660;7.834;2022-10-16T15:08:55;97341.97;;;17.16;100.00
3796;BME280;1913;50.660;7.834;2022-10-16T15:11:20;97340.25;;;17.10;100.00
3796;BME280;1913;50.660;7.834;2022-10-16T15:13:47;97339.94;;;17.07;100.00
3796;BME280;1913;50.660;7.834;2022-10-16T15:16:14;97340.06;;;17.00;100.00
3796;BME280;1913;50.660;7.834;2022-10-16T15:18:41;97337.75;;;17.04;100.00
3796;BME280;1913;50.660;7.834;2022-10-16T15:21:06;97337.59;;;16.93;100.00
3796;BME280;1913;50.660;7.834;2022-10-16T15:23:32;97340.06;;;17.00;100.00
3796;BME280;1913;50.660;7.834;2022-10-16T15:25:57;97339.28;;;16.99;100.00